Lazy 5 Park, Sparks, Nevada Weather observations

Data are for 10 minute period ending at time listed.
 Day   Time   Solar   Ave.   Ave.  Ave.  Vector  Max.   Baro.   Total    
  of    of     Rad.   Air    Rel.  Wind   Wind   Wind  Press.  Precip.   
Year   Day            Temp.  Hum.  Speed  Dir.   Gust                    
2026   (PST)  Kw/m2    F      %     mph   deg.    mph    mb.     in.     
-------------------------------------------------------------------------
 126   11:50   0.80   73.1    19    5.4   183    11.0   99999.0    0.00 
 126   12:00   0.80   73.4    19    3.4   147     9.9   99999.0    0.00 
 126   12:10   0.80   73.6    19    5.0   110    11.0   99999.0    0.00 
 126   12:20   0.80   74.4    15    6.5   179    11.4   99999.0    0.00 
 126   12:30   0.80   75.2    14    4.8   147     9.9   99999.0    0.00 
 126   12:40   0.79   75.1    15    6.2   191    11.7   99999.0    0.00 
 126   12:50   0.78   75.2    16    5.8   189    13.1   99999.0    0.00 
 126   13:00   0.78   74.0    18    4.7   346     8.9   99999.0    0.00 
 126   13:10   0.77   74.7    18    2.9    55     8.5   99999.0    0.00 
 126   13:20   0.76   76.2    16    5.5   199    11.4   99999.0    0.00 
 126   13:30   0.75   76.8    16    4.7   169    10.3   99999.0    0.00 
 126   13:40   0.74   76.2    17    4.0    66     7.8   99999.0    0.00 
 126   13:50   0.73   76.2    17    4.3   226    10.3   99999.0    0.00 
 126   14:00   0.71   77.3    15    5.4   173    11.4   99999.0    0.00 
 126   14:10   0.70   77.2    14    6.6   160    11.4   99999.0    0.00 
 126   14:20   0.69   77.5    14    4.6   139    10.3   99999.0    0.00 
 126   14:30   0.67   77.9    13    4.5   161     9.2   99999.0    0.00 
 126   14:40   0.65   77.7    13    4.8   182    10.3   99999.0    0.00 
 126   14:50   0.63   77.5    13    4.5   207     9.9   99999.0    0.00 
 126   15:00   0.61   77.5    13    5.0   198     9.2   99999.0    0.00 
 126   15:10   0.59   77.8    13    3.3   186     9.2   99999.0    0.00 
 126   15:20   0.41   78.6    13    3.6   179     8.9   99999.0    0.00 
 126   15:30   0.25   78.3    14    3.0    99     6.3   99999.0    0.00 
 126   15:40   0.52   78.2    14    3.7   185     8.5   99999.0    0.00 
 126   15:50   0.49   77.7    14    2.7   302     7.4   99999.0    0.00 
 126   16:00   0.47   77.9    14    5.6   210     9.9   99999.0    0.00 
 126   16:10   0.44   77.5    14    3.7   243     6.3   99999.0    0.00 
 126   16:20   0.41   77.6    14    5.0   270     8.9   99999.0    0.00 
 126   16:30   0.39   77.9    14    6.4   237    12.4   99999.0    0.00 
 126   16:40   0.36   78.0    14    2.5    77     4.9   99999.0    0.00 
 126   16:50   0.33   77.7    14    4.0   212     7.4   99999.0    0.00 
 126   17:00   0.27   77.7    14    3.1    80     7.1   99999.0    0.00 
 126   17:10   0.28   77.0    14    3.3    96     7.4   99999.0    0.00 
 126   17:20   0.25   77.2    14    4.2   100     8.1   99999.0    0.00 
 126   17:30   0.22   77.1    14    2.8   103     7.4   99999.0    0.00 
 126   17:40   0.19   76.8    14    2.5   147     5.3   99999.0    0.00 
 126   17:50   0.17   76.8    14    1.6   123     5.3   99999.0    0.00 
 126   18:00   0.12   76.2    15    2.5   330     6.7   99999.0    0.00 
 126   18:10   0.08   76.0    14    3.1   111     8.9   99999.0    0.00 
 126   18:20   0.05   75.8    14    3.1    67     6.3   99999.0    0.00 
 126   18:30   0.03   75.4    15    3.0   112     7.1   99999.0    0.00 
 126   18:40   0.05   74.7    16    3.3    70     6.0   99999.0    0.00 
 126   18:50   0.02   74.0    16    1.8    82     3.8   99999.0    0.00 
 126   19:00   0.01   72.6    17    1.2    89     2.8   99999.0    0.00 
 126   19:10   0.00   71.0    20    0.8    52     3.5   99999.0    0.00 
 126   19:20   0.00   69.1    22    2.2    39     3.5   99999.0    0.00 
 126   19:30   0.00   68.7    22    0.7    58     2.4   99999.0    0.00 
 126   19:40   0.00   68.0    24    1.5    90     3.5   99999.0    0.00 
 126   19:50   0.00   66.6    27    1.1    83     4.9   99999.0    0.00 
 126   20:00   0.00   64.1    30    1.9   187     3.1   99999.0    0.00 
 126   20:10   0.00   63.3    32    1.5   152     3.1   99999.0    0.00 
 126   20:20   0.00   65.2    32    5.5    66    11.7   99999.0    0.00 
 126   20:30   0.00   68.4    33    6.3    66     8.9   99999.0    0.00 
 126   20:40   0.00   67.7    35    4.1    57     6.7   99999.0    0.00 
 126   20:50   0.00   67.2    37    4.8    65     7.8   99999.0    0.00 
 126   21:00   0.00   67.1    40    3.7    84     8.1   99999.0    0.00 
 126   21:10   0.00   64.7    35    2.4   204     4.2   99999.0    0.00 
 126   21:20   0.00   61.6    40    1.0   332     2.8   99999.0    0.00 
 126   21:30   0.00   60.4    44    2.5   301     4.6   99999.0    0.00 
 126   21:40   0.00   60.2    49    3.0   270     6.3   99999.0    0.00 
 126   21:50   0.00   60.0    50    3.9   280     6.3   99999.0    0.00 
 126   22:00   0.00   61.0    50    4.2   280     6.7   99999.0    0.00 
 126   22:10   0.00   63.8    46    4.9   230     9.2   99999.0    0.00 
 126   22:20   0.00   64.8    44    3.4   161     7.8   99999.0    0.00 
 126   22:30   0.00   64.1    46    2.8   109     5.6   99999.0    0.00 
 126   22:40   0.00   63.5    46    1.9   264     5.6   99999.0    0.00 
 126   22:50   0.00   62.5    48    2.1   191     3.1   99999.0    0.00 
 126   23:00   0.00   61.7    50    1.8   114     4.2   99999.0    0.00 
 126   23:10   0.00   61.2    52    0.7   114     3.1   99999.0    0.00 
 126   23:20   0.00   60.1    54    1.5   156     3.5   99999.0    0.00 
 126   23:30   0.00   59.5    56    1.8   115     3.5   99999.0    0.00 
 126   23:40   0.00   58.4    58    0.4   168     2.8   99999.0    0.00 
 126   23:50   0.00   57.5    60    0.5   155     2.1   99999.0    0.00 
 127    0:00   0.00   56.8    62    1.4    87     2.8   99999.0    0.00 
 127    0:10   0.00   56.0    64    1.2    28     3.5   99999.0    0.00 
 127    0:20   0.00   57.2    60    2.1    83     3.1   99999.0    0.00 
 127    0:30   0.00   57.9    59    1.7    64     3.5   99999.0    0.00 
 127    0:40   0.00   55.2    64    3.0   197     4.2   99999.0    0.00 
 127    0:50   0.00   55.3    64    2.7   138     3.5   99999.0    0.00 
 127    1:00   0.00   54.8    66    0.5   117     2.4   99999.0    0.00 
 127    1:10   0.00   54.5    66    1.5   146     2.4   99999.0    0.00 
 127    1:20   0.00   52.8    68    0.3   339     2.1   99999.0    0.00 
 127    1:30   0.00   51.4    73    0.3   348     2.8   99999.0    0.00 
 127    1:40   0.00   52.4    71    1.3   123     2.8   99999.0    0.00 
 127    1:50   0.00   52.1    72    1.1    41     2.8   99999.0    0.00 
 127    2:00   0.00   51.8    73    1.3   132     2.8   99999.0    0.00 
 127    2:10   0.00   51.9    72    1.8   113     3.1   99999.0    0.00 
 127    2:20   0.00   51.7    72    1.2   147     2.8   99999.0    0.00 
 127    2:30   0.00   51.0    73    2.2   156     3.8   99999.0    0.00 
 127    2:40   0.00   50.5    73    0.8    40     2.8   99999.0    0.00 
 127    2:50   0.00   48.5    78    0.0   323     0.0   99999.0    0.00 
 127    3:00   0.00   47.9    80    0.0   323     0.0   99999.0    0.00 
 127    3:10   0.00   47.8    81    0.0   322     1.3   99999.0    0.00 
 127    3:20   0.00   48.0    80    0.4   203     2.1   99999.0    0.00 
 127    3:30   0.00   48.2    80    1.1   123     2.4   99999.0    0.00 
 127    3:40   0.00   48.4    78    0.0    60     0.0   99999.0    0.00 
 127    3:50   0.00   47.7    79    0.3    69     3.1   99999.0    0.00 
 127    4:00   0.00   47.7    79    2.3   141     3.8   99999.0    0.00 
 127    4:10   0.00   48.2    78    1.4   108     2.8   99999.0    0.00 
 127    4:20   0.00   47.4    78    0.0    98     1.0   99999.0    0.00 
 127    4:30   0.00   45.7    82    0.0   188     1.0   99999.0    0.00 
 127    4:40   0.00   45.1    85    0.0   197     1.0   99999.0    0.00 
 127    4:50   0.00   44.8    86    0.0    50     0.0   99999.0    0.00 
 127    5:00   0.00   45.8    85    2.1   180     4.2   99999.0    0.00 
 127    5:10   0.00   46.2    84    0.8    53     3.1   99999.0    0.00 
 127    5:20   0.01   46.3    83    0.8    50     2.8   99999.0    0.00 
 127    5:30   0.03   46.7    82    0.0    76     0.0   99999.0    0.00 
 127    5:40   0.05   47.7    80    1.5   115     3.1   99999.0    0.00 
 127    5:50   0.07   48.9    77    2.0   125     3.5   99999.0    0.00 
 127    6:00   0.09   50.4    74    0.0   137     0.0   99999.0    0.00 
 127    6:10   0.11   51.6    72    0.0   180     0.0   99999.0    0.00 
 127    6:20   0.14   52.5    70    0.0   211     0.0   99999.0    0.00 
 127    6:30   0.16   53.1    70    0.0   198     0.0   99999.0    0.00 
 127    6:40   0.19   54.6    66    0.0   201     0.0   99999.0    0.00 
 127    6:50   0.22   56.3    63    0.0   237     0.0   99999.0    0.00 
 127    7:00   0.24   57.3    61    1.0   296     3.1   99999.0    0.00 
 127    7:10   0.27   58.3    60    2.3   274     4.6   99999.0    0.00 
 127    7:20   0.30   59.8    56    2.7   230     4.9   99999.0    0.00 
 127    7:30   0.32   60.4    54    2.0   217     3.5   99999.0    0.00 
 127    7:40   0.35   60.9    53    1.4   172     3.8   99999.0    0.00 
 127    7:50   0.38   61.5    51    1.2   169     4.2   99999.0    0.00 
 127    8:00   0.38   61.9    50    1.8   246     4.2   99999.0    0.00 
 127    8:10   0.42   62.8    48    2.6   228     4.9   99999.0    0.00 
 127    8:20   0.46   63.1    47    2.3   212     4.2   99999.0    0.00 
 127    8:30   0.48   64.1    46    2.7   232     4.9   99999.0    0.00 
 127    8:40   0.51   65.1    45    2.5   253     4.9   99999.0    0.00 
 127    8:50   0.53   66.4    41    2.9   259     6.3   99999.0    0.00 
 127    9:00   0.55   67.3    39    2.9   278     6.7   99999.0    0.00 
 127    9:10   0.57   68.2    37    3.8   290     6.7   99999.0    0.00 
 127    9:20   0.60   69.9    31    3.7   295     6.3   99999.0    0.00 
 127    9:30   0.61   71.0    30    3.2   206     6.7   99999.0    0.00 
 127    9:40   0.64   72.4    28    2.6   177     8.5   99999.0    0.00 
 127    9:50   0.66   73.0    23    3.6   159     8.1   99999.0    0.00 
 127   10:00   0.67   73.3    20    4.7    66     9.6   99999.0    0.00 
 127   10:10   0.69   73.1    22    6.0    46     9.9   99999.0    0.00 
 127   10:20   0.71   73.5    20    2.9   102     7.1   99999.0    0.00 
 127   10:30   0.72   74.0    21    7.3    54    14.2   99999.0    0.00 
 127   10:40   0.73   72.9    23    6.2    48    11.7   99999.0    0.00 
 127   10:50   0.75   74.1    20    5.2    51     8.9   99999.0    0.00 
 127   11:00   0.76   73.8    20    4.7    54    12.4   99999.0    0.00 
 127   11:10   0.77   75.7    17    5.0    93     9.6   99999.0    0.00 
 127   11:20   0.77   76.0    18    5.4    67     9.9   99999.0    0.00 
 127   11:30   0.78   76.2    19    4.9    75    11.4   99999.0    0.00 
 127   11:40   0.79   76.7    19    6.0    75    11.7   99999.0    0.00 

Return to Lazy 5 Park graphs page.


Western Regional Climate Center,wrcc@dri.edu